createdAt,value
2023-03-23T16:00:40.528Z,100272.75
2023-03-23T16:03:50.090Z,100274.22
2023-03-23T16:06:59.307Z,100262.56
2023-03-23T16:10:04.438Z,100264.03
2023-03-23T16:13:07.907Z,100263.38
2023-03-23T16:16:18.341Z,100244.81
2023-03-23T16:19:24.578Z,100227.91
2023-03-23T16:22:28.333Z,100220.00
2023-03-23T16:25:33.300Z,100231.84
2023-03-23T16:28:36.956Z,100228.16
2023-03-23T16:31:40.783Z,100238.38
2023-03-23T16:34:44.439Z,100234.94
2023-03-23T16:37:49.217Z,100250.28
2023-03-23T16:40:54.260Z,100258.81
2023-03-23T16:43:57.774Z,100267.78
2023-03-23T16:47:01.440Z,100265.34
2023-03-23T16:50:08.167Z,100279.81
2023-03-23T16:53:13.315Z,100265.13
2023-03-23T16:56:18.299Z,100271.63
2023-03-23T16:59:21.875Z,100265.69
2023-03-23T17:02:29.794Z,100264.97
2023-03-23T17:05:33.687Z,100281.31
2023-03-23T17:08:37.411Z,100282.38
2023-03-23T17:11:42.465Z,100288.84
2023-03-23T17:14:45.998Z,100291.78
2023-03-23T17:17:49.688Z,100299.09
2023-03-23T17:20:54.988Z,100307.69
2023-03-23T17:23:58.591Z,100308.25
2023-03-23T17:27:03.567Z,100315.63
2023-03-23T17:30:10.815Z,100315.28
2023-03-23T17:33:14.964Z,100316.63
2023-03-23T17:36:19.403Z,100321.88
2023-03-23T17:39:22.906Z,100317.78
2023-03-23T17:42:28.104Z,100328.56
2023-03-23T17:45:31.666Z,100330.56
2023-03-23T17:48:36.249Z,100321.19
2023-03-23T17:51:39.872Z,100329.44
2023-03-23T17:54:43.488Z,100340.06
2023-03-23T17:57:48.493Z,100354.16
2023-03-23T18:00:52.148Z,100347.13
2023-03-23T18:03:55.742Z,100353.63
2023-03-23T18:07:00.425Z,100362.16
2023-03-23T18:10:04.379Z,100355.91
2023-03-23T18:13:10.428Z,100344.63
2023-03-23T18:16:14.332Z,100340.91
2023-03-23T18:19:18.101Z,100342.72
2023-03-23T18:22:21.702Z,100332.88
2023-03-23T18:25:25.730Z,100327.84
2023-03-23T18:28:31.085Z,100327.19
2023-03-23T18:31:40.002Z,100334.06
2023-03-23T18:34:44.053Z,100332.97
2023-03-23T18:37:48.292Z,100342.63
2023-03-23T18:40:51.830Z,100348.38
2023-03-23T18:43:57.867Z,100349.94
2023-03-23T18:47:01.542Z,100343.72
2023-03-23T18:50:06.126Z,100350.78
2023-03-23T18:53:09.715Z,100340.56
2023-03-23T18:56:16.243Z,100360.19
2023-03-23T18:59:23.995Z,100357.66
2023-03-23T19:02:27.753Z,100356.75
2023-03-23T19:05:31.843Z,100352.56
2023-03-23T19:08:35.974Z,100348.13
2023-03-23T19:11:39.691Z,100349.84
2023-03-23T19:14:44.778Z,100340.34
2023-03-23T19:17:48.604Z,100349.53
2023-03-23T19:24:00.752Z,100338.63
2023-03-23T19:27:04.633Z,100340.28
2023-03-23T19:30:10.822Z,100344.22
2023-03-23T19:33:15.802Z,100334.69
2023-03-23T19:36:20.301Z,100324.28
2023-03-23T19:39:25.199Z,100315.00
2023-03-23T19:42:28.947Z,100318.84
2023-03-23T19:45:34.219Z,100321.59
2023-03-23T19:48:39.687Z,100323.72
2023-03-23T19:51:43.549Z,100326.00
2023-03-23T19:54:47.177Z,100328.59
2023-03-23T19:57:51.423Z,100324.47
2023-03-23T20:00:57.117Z,100314.28
2023-03-23T20:04:04.850Z,100306.66
2023-03-23T20:07:09.963Z,100307.69
2023-03-23T20:10:13.729Z,100302.16
2023-03-23T20:13:17.970Z,100304.94
2023-03-23T20:16:22.970Z,100313.59
2023-03-23T20:19:26.711Z,100325.09
2023-03-23T20:22:30.338Z,100319.03
2023-03-23T20:25:33.969Z,100320.31
2023-03-23T20:28:39.130Z,100309.72
2023-03-23T20:31:45.275Z,100305.44
2023-03-23T20:34:49.551Z,100315.09
2023-03-23T20:37:53.708Z,100304.47
2023-03-23T20:40:58.448Z,100296.13
2023-03-23T20:44:02.315Z,100300.69
2023-03-23T20:47:08.711Z,100295.59
2023-03-23T20:50:13.653Z,100293.53
2023-03-23T20:53:17.359Z,100279.25
2023-03-23T20:56:24.531Z,100295.06
2023-03-23T20:59:29.049Z,100278.13
2023-03-23T21:02:34.297Z,100284.59
2023-03-23T21:05:37.783Z,100280.81
2023-03-23T21:08:42.211Z,100275.44
2023-03-23T21:11:47.340Z,100259.84
2023-03-23T21:14:51.187Z,100261.31
2023-03-23T21:17:56.354Z,100260.19
2023-03-23T21:21:00.718Z,100259.72
2023-03-23T21:24:04.555Z,100249.78
2023-03-23T21:27:08.239Z,100245.16
2023-03-23T21:30:12.478Z,100245.66
2023-03-23T21:33:17.393Z,100236.06
2023-03-23T21:36:21.061Z,100240.28
2023-03-23T21:39:24.992Z,100230.75
2023-03-23T21:42:31.103Z,100221.19
2023-03-23T21:45:34.835Z,100216.41
2023-03-23T21:48:41.410Z,100210.31
2023-03-23T21:51:45.055Z,100210.56
2023-03-23T21:54:48.819Z,100196.19
2023-03-23T21:57:52.657Z,100190.13
2023-03-23T22:00:57.043Z,100186.53
2023-03-23T22:04:02.014Z,100180.91
2023-03-23T22:07:05.771Z,100171.53
2023-03-23T22:10:11.098Z,100173.88
2023-03-23T22:13:17.994Z,100164.56
2023-03-23T22:16:22.975Z,100164.78
2023-03-23T22:19:28.055Z,100159.63
2023-03-23T22:22:31.656Z,100160.25
2023-03-23T22:25:36.292Z,100153.50
2023-03-23T22:28:40.849Z,100146.31
2023-03-23T22:31:45.568Z,100139.09
2023-03-23T22:34:52.150Z,100131.28
2023-03-23T22:37:56.257Z,100123.91
2023-03-23T22:41:02.489Z,100123.66
2023-03-23T22:44:08.972Z,100119.75
2023-03-23T22:47:12.972Z,100107.28
2023-03-23T22:50:18.927Z,100105.50
2023-03-23T22:53:23.464Z,100098.94
2023-03-23T22:56:27.169Z,100104.34
2023-03-23T22:59:30.749Z,100100.19
2023-03-23T23:02:34.393Z,100091.41
2023-03-23T23:05:43.833Z,100097.56
2023-03-23T23:08:49.635Z,100090.78
2023-03-23T23:11:53.153Z,100094.31
2023-03-23T23:14:58.532Z,100091.91
2023-03-23T23:18:02.854Z,100077.59
2023-03-23T23:21:13.104Z,100078.59
2023-03-23T23:24:17.097Z,100074.53
2023-03-23T23:27:20.755Z,100072.97
2023-03-23T23:30:24.379Z,100074.53
2023-03-23T23:33:28.027Z,100060.94
2023-03-23T23:36:33.776Z,100056.34
2023-03-23T23:39:38.589Z,100065.53
2023-03-23T23:42:43.034Z,100054.06
2023-03-23T23:45:46.945Z,100048.22
2023-03-23T23:48:50.572Z,100047.16
2023-03-23T23:51:56.620Z,100041.41
2023-03-23T23:55:00.401Z,100043.22
2023-03-23T23:58:03.991Z,100042.47
